Time;durP1;ratioP1;P1;durP2;ratioP2;P2;SDS_P1;SDS_P2;PMS_P1;PMS_P2;Temp;Humidity;BMP_temperature;BMP_pressure;BME280_temperature;BME280_humidity;BME280_pressure;Samples;Min_cycle;Max_cycle;Signal;HPM_P1;HPM_P2
2022/11/18 00:01:17;;;;;;;4.07;1.80;;;8.90;99.90;;;;;;5037148;28;20280;-52
2022/11/18 00:03:44;;;;;;;4.53;2.03;;;9.00;99.90;;;;;;5037821;28;20659;-51
2022/11/18 00:06:14;;;;;;;5.93;1.70;;;9.00;99.90;;;;;;5038237;28;20601;-50
2022/11/18 00:08:41;;;;;;;5.90;1.90;;;8.90;99.90;;;;;;5040148;28;20840;-51
2022/11/18 00:11:10;;;;;;;5.50;1.90;;;8.80;99.90;;;;;;5040467;28;20235;-52
2022/11/18 00:16:23;;;;;;;4.60;2.00;;;8.80;99.90;;;;;;5039834;28;20283;-50
2022/11/18 00:18:50;;;;;;;3.83;1.80;;;9.00;99.90;;;;;;5037874;28;20200;-52
2022/11/18 00:21:17;;;;;;;3.50;1.83;;;9.10;99.90;;;;;;5041750;28;20257;-52
2022/11/18 00:23:44;;;;;;;4.53;2.10;;;9.10;99.90;;;;;;5040367;28;20688;-51
2022/11/18 00:26:13;;;;;;;5.73;2.23;;;8.90;99.90;;;;;;5040336;28;20238;-50
2022/11/18 00:28:40;;;;;;;3.67;2.07;;;8.90;99.90;;;;;;5040241;28;20628;-51
2022/11/18 00:31:12;;;;;;;3.13;1.87;;;9.10;99.90;;;;;;5040168;28;20242;-50
2022/11/18 00:33:39;;;;;;;5.03;1.70;;;9.10;99.90;;;;;;5040669;28;20241;-51
2022/11/18 00:36:08;;;;;;;4.30;1.83;;;8.90;99.90;;;;;;5041516;28;20251;-54
2022/11/18 00:38:35;;;;;;;3.40;2.30;;;9.00;99.90;;;;;;5040266;28;20200;-53
2022/11/18 00:41:14;;;;;;;4.87;1.73;;;9.00;99.90;;;;;;5039856;28;20195;-50
2022/11/18 00:43:41;;;;;;;4.43;1.60;;;9.00;99.90;;;;;;5038353;28;20200;-51
2022/11/18 00:46:10;;;;;;;3.00;2.00;;;9.00;99.90;;;;;;5039178;28;20214;-51
2022/11/18 00:48:37;;;;;;;6.90;2.20;;;8.90;99.90;;;;;;5039499;28;20404;-51
2022/11/18 00:51:16;;;;;;;3.40;1.90;;;8.90;99.90;;;;;;5040744;28;20258;-50
2022/11/18 00:53:44;;;;;;;3.23;1.50;;;8.90;99.90;;;;;;5039830;28;20304;-51
2022/11/18 00:56:10;;;;;;;5.17;2.20;;;8.90;99.90;;;;;;5038559;28;20214;-55
2022/11/18 00:58:37;;;;;;;4.93;2.00;;;8.70;99.90;;;;;;5032722;28;20232;-49
2022/11/18 01:01:04;;;;;;;4.93;1.73;;;8.80;99.90;;;;;;5036930;28;20205;-50
2022/11/18 01:03:31;;;;;;;4.20;1.93;;;8.90;99.90;;;;;;5039611;28;20257;-50
2022/11/18 01:05:58;;;;;;;2.97;1.70;;;8.80;99.90;;;;;;5039549;28;20202;-51
2022/11/18 01:08:25;;;;;;;4.07;1.90;;;8.80;99.90;;;;;;5040572;28;20616;-54
2022/11/18 01:10:52;;;;;;;3.07;1.90;;;8.80;99.90;;;;;;5038629;28;20263;-51
2022/11/18 01:13:21;;;;;;;4.63;1.67;;;8.80;99.90;;;;;;5038341;28;20223;-51
2022/11/18 01:15:49;;;;;;;2.03;1.83;;;8.80;99.90;;;;;;5037121;28;20212;-50
2022/11/18 01:18:18;;;;;;;4.43;2.30;;;8.80;99.90;;;;;;5032933;28;20294;-50
2022/11/18 01:20:46;;;;;;;3.80;1.90;;;9.00;99.90;;;;;;5028653;28;20568;-52
2022/11/18 01:23:13;;;;;;;3.83;2.07;;;9.00;99.90;;;;;;5030620;28;20269;-50
2022/11/18 01:25:42;;;;;;;4.57;2.00;;;9.00;99.90;;;;;;5035484;28;20235;-57
2022/11/18 01:28:10;;;;;;;4.50;1.70;;;9.00;99.90;;;;;;5040021;28;20222;-51
2022/11/18 01:30:38;;;;;;;3.97;2.03;;;9.00;99.90;;;;;;5038514;28;20219;-53
2022/11/18 01:33:05;;;;;;;6.50;2.07;;;9.00;99.90;;;;;;5040447;28;20284;-51
2022/11/18 01:35:40;;;;;;;4.60;2.00;;;9.10;99.90;;;;;;5038723;28;20993;-52
2022/11/18 01:38:12;;;;;;;2.77;2.00;;;9.00;99.90;;;;;;5037477;28;20202;-54
2022/11/18 01:40:40;;;;;;;5.37;1.83;;;9.10;99.90;;;;;;5039615;28;20310;-52
2022/11/18 01:43:17;;;;;;;3.67;1.90;;;9.10;99.90;;;;;;5035705;28;21112;-52
2022/11/18 01:45:47;;;;;;;7.03;2.13;;;9.20;99.90;;;;;;5036061;28;20311;-54
2022/11/18 01:48:19;;;;;;;4.47;1.83;;;9.20;99.90;;;;;;5037604;28;20326;-51
2022/11/18 01:50:55;;;;;;;3.27;1.70;;;9.20;99.90;;;;;;5037559;28;20558;-52
2022/11/18 01:53:27;;;;;;;4.43;1.77;;;9.20;99.90;;;;;;5035614;28;20261;-50
2022/11/18 01:55:58;;;;;;;4.77;2.07;;;9.20;99.90;;;;;;5037260;28;20653;-56
2022/11/18 01:58:32;;;;;;;2.73;1.60;;;9.20;99.90;;;;;;5038649;28;20239;-52
2022/11/18 02:00:59;;;;;;;4.60;1.57;;;9.30;99.90;;;;;;5039573;28;20207;-53
2022/11/18 02:03:26;;;;;;;5.50;2.00;;;9.20;99.90;;;;;;5039856;28;20290;-52
2022/11/18 02:05:54;;;;;;;4.50;1.80;;;9.20;99.90;;;;;;5039586;28;20204;-53
2022/11/18 02:08:22;;;;;;;3.53;1.80;;;9.20;99.90;;;;;;5038114;28;20708;-49
2022/11/18 02:10:49;;;;;;;5.13;2.00;;;9.20;99.90;;;;;;5038433;28;20280;-54
2022/11/18 02:13:17;;;;;;;3.77;1.83;;;9.20;99.90;;;;;;5038883;28;20347;-49
2022/11/18 02:16:02;;;;;;;3.30;2.10;;;9.20;99.90;;;;;;5037351;28;20224;-50
2022/11/18 02:18:53;;;;;;;4.30;1.53;;;9.10;99.90;;;;;;5034422;28;20274;-50
2022/11/18 02:21:31;;;;;;;3.53;1.33;;;9.20;99.90;;;;;;5039303;28;20509;-50
2022/11/18 02:24:09;;;;;;;4.70;1.67;;;9.30;99.90;;;;;;5039853;28;20220;-50
2022/11/18 02:26:54;;;;;;;3.43;1.77;;;9.20;99.90;;;;;;5039384;28;20626;-51
2022/11/18 02:29:28;;;;;;;3.47;1.93;;;9.20;99.90;;;;;;5036118;28;20294;-50
2022/11/18 02:32:05;;;;;;;3.17;1.73;;;9.20;99.90;;;;;;5039664;28;20654;-52
2022/11/18 02:34:50;;;;;;;3.10;1.83;;;9.10;99.90;;;;;;5036797;28;20224;-51
2022/11/18 02:37:22;;;;;;;5.53;1.93;;;9.20;99.90;;;;;;5036688;28;20710;-51
2022/11/18 02:39:59;;;;;;;5.13;1.80;;;9.10;99.90;;;;;;5034768;28;20196;-50
2022/11/18 02:42:29;;;;;;;2.60;1.57;;;9.20;99.90;;;;;;5030844;28;20206;-51
2022/11/18 02:45:04;;;;;;;5.17;1.67;;;9.30;99.90;;;;;;5031904;28;20310;-53
2022/11/18 02:47:33;;;;;;;5.87;1.50;;;9.30;99.90;;;;;;5032899;28;20215;-51
2022/11/18 02:50:05;;;;;;;5.10;1.80;;;9.30;99.90;;;;;;5030006;28;20575;-52
2022/11/18 02:52:34;;;;;;;2.03;1.50;;;9.40;99.90;;;;;;5033239;28;20208;-51
2022/11/18 02:55:03;;;;;;;2.63;1.67;;;9.40;99.90;;;;;;5032440;28;20220;-53
2022/11/18 02:57:32;;;;;;;6.03;1.70;;;9.50;99.90;;;;;;5032077;28;20228;-54
2022/11/18 02:59:59;;;;;;;5.40;2.00;;;9.50;99.90;;;;;;5032691;28;20291;-52
2022/11/18 03:02:26;;;;;;;4.37;1.60;;;9.40;99.90;;;;;;5030884;28;21069;-52
2022/11/18 03:04:56;;;;;;;4.10;1.90;;;9.40;99.90;;;;;;5033452;28;20240;-52
2022/11/18 03:07:33;;;;;;;4.40;2.00;;;9.30;99.90;;;;;;5033892;28;20207;-55
2022/11/18 03:10:01;;;;;;;3.63;1.80;;;9.30;99.90;;;;;;5030480;28;20790;-53
2022/11/18 03:12:39;;;;;;;2.10;1.50;;;9.30;99.90;;;;;;5030680;28;20204;-52
2022/11/18 03:15:15;;;;;;;3.33;1.73;;;9.30;99.90;;;;;;5032570;28;20305;-52
2022/11/18 03:17:48;;;;;;;4.73;1.87;;;9.30;99.90;;;;;;5030531;28;20408;-52
2022/11/18 03:20:26;;;;;;;3.53;1.50;;;9.30;99.90;;;;;;5032878;28;20212;-52
2022/11/18 03:23:10;;;;;;;2.60;1.37;;;9.30;99.90;;;;;;5036325;28;20239;-55
2022/11/18 03:25:50;;;;;;;4.03;1.80;;;9.30;99.90;;;;;;5032132;28;20266;-51
2022/11/18 03:28:26;;;;;;;3.87;1.70;;;9.20;99.90;;;;;;5030440;28;20305;-58
2022/11/18 03:31:01;;;;;;;1.93;1.50;;;9.40;99.90;;;;;;5030111;28;20715;-52
2022/11/18 03:33:35;;;;;;;5.30;1.90;;;9.40;99.90;;;;;;5029493;28;20219;-52
2022/11/18 03:36:06;;;;;;;4.00;1.67;;;9.40;99.90;;;;;;5031900;28;20200;-53
2022/11/18 03:38:38;;;;;;;4.00;1.73;;;9.40;99.90;;;;;;5029608;28;20286;-58
2022/11/18 03:41:08;;;;;;;7.87;1.87;;;9.30;99.90;;;;;;5030268;28;20279;-55
2022/11/18 03:43:41;;;;;;;3.17;1.70;;;9.30;99.90;;;;;;5030618;28;20206;-51
2022/11/18 03:46:22;;;;;;;3.67;1.60;;;9.40;99.90;;;;;;5030508;28;20255;-52
2022/11/18 03:48:55;;;;;;;4.80;1.60;;;9.30;99.90;;;;;;5030768;28;20226;-54
2022/11/18 03:51:29;;;;;;;3.10;1.90;;;9.40;99.90;;;;;;5030926;28;20200;-58
2022/11/18 03:54:28;;;;;;;4.20;2.73;;;9.40;99.90;;;;;;5033732;28;20688;-55
2022/11/18 03:57:02;;;;;;;4.73;1.93;;;9.40;99.90;;;;;;5036897;28;20243;-63
2022/11/18 03:59:37;;;;;;;5.07;1.67;;;9.40;99.90;;;;;;5033363;28;20279;-53
2022/11/18 04:02:17;;;;;;;3.43;1.77;;;9.40;99.90;;;;;;5036737;28;20207;-59
2022/11/18 04:04:47;;;;;;;2.60;1.70;;;9.40;99.90;;;;;;5033804;28;20260;-60
2022/11/18 04:07:16;;;;;;;4.00;1.60;;;9.30;99.90;;;;;;5036514;28;20994;-53
2022/11/18 04:09:50;;;;;;;5.80;2.27;;;9.20;99.90;;;;;;5034919;28;20288;-51
2022/11/18 04:12:20;;;;;;;2.73;1.70;;;9.30;99.90;;;;;;5038161;28;20662;-51
2022/11/18 04:14:48;;;;;;;3.87;1.77;;;9.30;99.90;;;;;;5034893;28;20314;-51
2022/11/18 04:17:19;;;;;;;4.70;1.83;;;9.40;99.90;;;;;;5035335;28;20226;-53
2022/11/18 04:19:46;;;;;;;2.97;1.70;;;9.40;99.90;;;;;;5031026;28;20208;-51
2022/11/18 04:22:13;;;;;;;3.10;1.53;;;9.40;99.90;;;;;;5035476;28;20226;-52
2022/11/18 04:24:40;;;;;;;3.77;1.63;;;9.40;99.90;;;;;;5036350;28;21358;-54
2022/11/18 04:27:07;;;;;;;3.70;1.73;;;9.30;99.90;;;;;;5038705;28;20204;-51
2022/11/18 04:29:34;;;;;;;3.23;1.50;;;9.30;99.90;;;;;;5033470;28;20285;-54
2022/11/18 04:32:01;;;;;;;3.20;1.60;;;9.20;99.90;;;;;;5034931;28;20333;-52
2022/11/18 04:34:29;;;;;;;2.67;1.57;;;9.30;99.90;;;;;;5032968;28;20212;-54
2022/11/18 04:36:57;;;;;;;4.87;1.70;;;9.20;99.90;;;;;;5035409;28;20199;-52
2022/11/18 04:39:24;;;;;;;3.73;1.73;;;9.10;99.90;;;;;;5035841;28;20562;-54
2022/11/18 04:41:57;;;;;;;5.30;1.67;;;9.10;99.90;;;;;;5036996;28;20198;-53
2022/11/18 04:44:33;;;;;;;3.47;1.23;;;9.10;99.90;;;;;;5017072;28;20204;-51
2022/11/18 04:47:03;;;;;;;4.43;1.47;;;9.10;99.90;;;;;;5032501;28;20299;-54
2022/11/18 04:49:30;;;;;;;3.47;1.50;;;9.10;99.90;;;;;;5032448;28;20242;-52
2022/11/18 04:51:57;;;;;;;3.97;1.60;;;9.10;99.90;;;;;;5032634;28;20223;-55
2022/11/18 04:54:25;;;;;;;3.57;1.50;;;9.10;99.90;;;;;;5030665;28;20227;-52
2022/11/18 04:56:52;;;;;;;2.37;1.87;;;9.10;99.90;;;;;;5034358;28;20208;-54
2022/11/18 04:59:22;;;;;;;2.90;1.40;;;9.10;99.90;;;;;;5032237;28;20604;-52
2022/11/18 05:01:50;;;;;;;3.53;1.60;;;9.10;99.90;;;;;;5034642;28;20623;-51
2022/11/18 05:04:20;;;;;;;2.17;1.23;;;9.00;99.90;;;;;;5036240;28;20203;-51
2022/11/18 05:06:47;;;;;;;3.97;1.60;;;8.90;99.90;;;;;;5036148;28;20394;-52
2022/11/18 05:09:14;;;;;;;3.77;1.80;;;9.00;99.90;;;;;;5037476;28;20208;-51
2022/11/18 05:14:28;;;;;;;2.40;1.40;;;9.10;99.90;;;;;;5038106;28;20227;-51
2022/11/18 05:16:57;;;;;;;3.77;1.43;;;8.90;99.90;;;;;;5034200;28;20256;-55
2022/11/18 05:19:24;;;;;;;3.43;2.00;;;8.80;99.90;;;;;;5033270;28;20202;-55
2022/11/18 05:21:51;;;;;;;3.00;1.90;;;8.80;99.90;;;;;;5039559;28;20207;-53
2022/11/18 05:24:18;;;;;;;3.13;1.87;;;8.90;99.90;;;;;;5039462;28;20350;-53
2022/11/18 05:26:46;;;;;;;4.57;2.00;;;8.90;99.90;;;;;;5037549;28;20328;-51
2022/11/18 05:29:13;;;;;;;6.27;1.57;;;8.90;99.90;;;;;;5039757;28;20558;-51
2022/11/18 05:31:40;;;;;;;3.73;1.70;;;8.90;99.90;;;;;;5043349;28;20283;-51
2022/11/18 05:34:06;;;;;;;6.80;1.73;;;8.90;99.90;;;;;;5039376;28;20260;-53
2022/11/18 05:36:33;;;;;;;7.30;1.60;;;8.90;99.90;;;;;;5040893;28;20203;-52
2022/11/18 05:39:00;;;;;;;3.90;1.50;;;9.00;99.90;;;;;;5039976;28;20291;-51
2022/11/18 05:44:13;;;;;;;2.10;1.40;;;8.90;99.90;;;;;;5041372;28;20292;-53
2022/11/18 05:46:40;;;;;;;4.87;1.60;;;8.80;99.90;;;;;;5041934;28;20302;-54
2022/11/18 05:49:07;;;;;;;2.50;1.33;;;8.70;99.90;;;;;;5041231;28;20237;-53
2022/11/18 05:51:34;;;;;;;4.57;1.83;;;8.80;99.90;;;;;;5041270;28;20200;-52
2022/11/18 05:54:07;;;;;;;2.63;1.77;;;8.90;99.90;;;;;;5039632;28;20199;-52
2022/11/18 05:56:40;;;;;;;3.13;1.53;;;8.80;99.90;;;;;;5041095;28;20261;-54
2022/11/18 05:59:07;;;;;;;4.67;1.67;;;8.80;99.90;;;;;;5040004;28;20265;-52
2022/11/18 06:01:36;;;;;;;2.97;1.63;;;8.80;99.90;;;;;;5035322;28;20218;-51
2022/11/18 06:04:14;;;;;;;3.10;1.67;;;8.70;99.90;;;;;;5035310;28;20203;-53
2022/11/18 06:06:42;;;;;;;4.33;1.70;;;8.70;99.90;;;;;;5033763;28;20201;-51
2022/11/18 06:09:10;;;;;;;3.37;1.50;;;8.60;99.90;;;;;;5037153;28;20232;-51
2022/11/18 06:11:46;;;;;;;3.30;1.83;;;8.70;99.90;;;;;;5036543;28;20244;-51
2022/11/18 06:14:25;;;;;;;3.33;1.70;;;8.50;99.90;;;;;;5032720;28;20242;-52
2022/11/18 06:16:57;;;;;;;4.83;1.83;;;8.60;99.90;;;;;;5033563;28;20327;-54
2022/11/18 06:19:24;;;;;;;4.93;1.80;;;8.60;99.90;;;;;;5031901;28;20204;-52
2022/11/18 06:21:52;;;;;;;3.27;1.70;;;8.50;99.90;;;;;;5033346;28;20610;-54
2022/11/18 06:24:19;;;;;;;4.30;2.27;;;8.50;99.90;;;;;;5016589;28;20305;-53
2022/11/18 06:26:47;;;;;;;4.87;2.10;;;8.60;99.90;;;;;;5032519;28;20198;-51
2022/11/18 06:29:17;;;;;;;4.93;2.17;;;8.60;99.90;;;;;;5037516;28;20209;-51
2022/11/18 06:31:51;;;;;;;3.93;1.70;;;8.50;99.90;;;;;;5038925;28;20229;-53
2022/11/18 06:34:18;;;;;;;3.20;1.80;;;8.50;99.90;;;;;;5031866;28;20303;-52
2022/11/18 06:36:45;;;;;;;2.80;1.93;;;8.60;99.90;;;;;;5034281;28;20237;-52
2022/11/18 06:39:12;;;;;;;4.10;1.77;;;8.50;99.90;;;;;;5033222;28;20204;-54
2022/11/18 06:41:39;;;;;;;6.13;1.73;;;8.30;99.90;;;;;;5031969;28;20245;-51
2022/11/18 06:44:06;;;;;;;1.83;1.60;;;8.20;99.90;;;;;;5028776;28;20271;-52
2022/11/18 06:49:18;;;;;;;6.27;1.93;;;8.40;99.90;;;;;;5033538;28;20954;-54
2022/11/18 06:51:45;;;;;;;3.00;1.63;;;8.20;99.90;;;;;;5030088;28;20255;-53
2022/11/18 06:54:12;;;;;;;4.20;1.93;;;8.20;99.90;;;;;;5029803;28;20196;-51
2022/11/18 06:56:40;;;;;;;5.00;1.80;;;8.20;99.90;;;;;;5030900;28;20199;-51
2022/11/18 06:59:07;;;;;;;4.90;2.13;;;8.30;99.90;;;;;;5027037;28;20238;-53
2022/11/18 07:01:37;;;;;;;4.00;2.07;;;8.30;99.90;;;;;;5024334;28;20240;-52
2022/11/18 07:04:04;;;;;;;4.17;2.07;;;8.30;99.90;;;;;;5024688;28;20201;-54
2022/11/18 07:06:33;;;;;;;3.27;2.20;;;8.40;99.90;;;;;;4668901;28;10000353;-55
2022/11/18 07:09:02;;;;;;;3.20;2.03;;;8.30;99.90;;;;;;5026767;28;20201;-60
2022/11/18 07:11:29;;;;;;;2.30;1.80;;;8.20;99.90;;;;;;5025284;28;20688;-55
2022/11/18 07:13:56;;;;;;;4.17;2.33;;;8.20;99.90;;;;;;5025460;28;20311;-66
2022/11/18 07:16:24;;;;;;;4.10;1.97;;;8.10;99.90;;;;;;5027656;28;20233;-55
2022/11/18 07:18:53;;;;;;;4.90;2.40;;;8.10;99.90;;;;;;5021290;28;20289;-56
2022/11/18 07:21:23;;;;;;;3.93;2.30;;;8.00;99.90;;;;;;5022443;28;20208;-55
2022/11/18 07:23:50;;;;;;;6.60;2.50;;;8.00;99.90;;;;;;5029141;28;20205;-56
2022/11/18 07:26:18;;;;;;;3.27;1.93;;;8.00;99.90;;;;;;5031502;28;20658;-55
2022/11/18 07:28:45;;;;;;;4.70;2.00;;;8.00;99.90;;;;;;5023777;28;20211;-55
2022/11/18 07:31:17;;;;;;;4.77;1.90;;;8.00;99.90;;;;;;5032498;28;20239;-55
2022/11/18 07:33:44;;;;;;;3.00;1.80;;;7.90;99.90;;;;;;5027577;28;20232;-56
2022/11/18 07:36:17;;;;;;;3.20;1.93;;;7.90;99.90;;;;;;5012997;28;20227;-55
2022/11/18 07:38:45;;;;;;;4.40;1.90;;;8.00;99.90;;;;;;5028584;28;20609;-55
2022/11/18 07:41:18;;;;;;;6.60;1.93;;;8.10;99.90;;;;;;5032583;28;20200;-56
2022/11/18 07:43:45;;;;;;;2.40;1.97;;;8.10;99.90;;;;;;5029509;28;20243;-56
2022/11/18 07:46:15;;;;;;;3.53;2.53;;;8.00;99.90;;;;;;5032412;28;20221;-56
2022/11/18 07:48:44;;;;;;;3.90;2.10;;;7.90;99.90;;;;;;5032352;28;20276;-55
2022/11/18 07:51:12;;;;;;;4.33;2.03;;;8.00;99.90;;;;;;5031233;28;20202;-56
2022/11/18 07:53:39;;;;;;;4.87;2.27;;;8.00;99.90;;;;;;4938316;28;20201;-56
2022/11/18 07:56:07;;;;;;;6.03;2.50;;;8.00;99.90;;;;;;4994794;28;20263;-55
2022/11/18 07:58:35;;;;;;;4.43;2.17;;;8.10;99.90;;;;;;4039204;28;20245;-55
2022/11/18 08:01:17;;;;;;;3.13;2.10;;;8.30;99.90;;;;;;5051517;28;20200;-55
2022/11/18 08:03:45;;;;;;;6.72;3.35;;;8.20;99.90;;;;;;5047444;28;21159;-55
2022/11/18 08:06:14;;;;;;;3.17;2.30;;;8.20;99.90;;;;;;5045409;28;20206;-53
2022/11/18 08:08:41;;;;;;;6.63;2.70;;;8.10;99.90;;;;;;5045858;28;20683;-55
2022/11/18 08:11:10;;;;;;;5.27;2.43;;;8.10;99.90;;;;;;5049037;28;20741;-55
2022/11/18 08:13:40;;;;;;;5.70;2.47;;;8.10;99.90;;;;;;5047497;28;20207;-54
2022/11/18 08:16:20;;;;;;;6.63;2.63;;;8.10;99.90;;;;;;5045964;28;20247;-54
2022/11/18 08:18:47;;;;;;;4.80;2.33;;;8.20;99.90;;;;;;5046777;28;20560;-56
2022/11/18 08:21:15;;;;;;;3.20;2.20;;;8.30;99.90;;;;;;5050541;28;20223;-56
2022/11/18 08:23:42;;;;;;;4.67;2.27;;;8.20;99.90;;;;;;5045716;28;20630;-56
2022/11/18 08:26:12;;;;;;;3.00;1.97;;;8.30;99.90;;;;;;5049645;28;20199;-55
2022/11/18 08:28:41;;;;;;;3.10;2.13;;;8.20;99.90;;;;;;5048486;28;20294;-55
2022/11/18 08:31:13;;;;;;;3.10;2.10;;;8.10;99.90;;;;;;5052604;28;20219;-56
2022/11/18 08:33:40;;;;;;;3.23;2.13;;;8.20;99.90;;;;;;5049604;28;20676;-55
2022/11/18 08:36:09;;;;;;;4.57;2.03;;;8.20;99.90;;;;;;5050318;28;20264;-55
2022/11/18 08:38:36;;;;;;;5.63;2.67;;;8.20;99.90;;;;;;5047561;28;20204;-57
2022/11/18 08:41:05;;;;;;;4.00;2.20;;;8.10;99.90;;;;;;5057861;28;20575;-60
2022/11/18 08:43:35;;;;;;;9.00;2.53;;;8.20;99.90;;;;;;5052535;28;20197;-59
2022/11/18 08:46:02;;;;;;;8.90;2.50;;;8.40;99.90;;;;;;5054017;28;20223;-59
2022/11/18 08:48:29;;;;;;;7.27;2.60;;;8.50;99.90;;;;;;5051167;28;20306;-58
2022/11/18 08:50:57;;;;;;;3.80;2.23;;;8.70;99.90;;;;;;5051320;28;20205;-63
2022/11/18 08:53:24;;;;;;;4.63;2.50;;;8.80;99.90;;;;;;5050455;28;20810;-63
2022/11/18 08:55:56;;;;;;;10.10;2.60;;;8.80;99.90;;;;;;5054999;28;20219;-61
2022/11/18 08:58:23;;;;;;;9.60;2.63;;;8.80;99.90;;;;;;5044367;28;20236;-63
2022/11/18 09:00:51;;;;;;;4.60;2.43;;;8.90;99.90;;;;;;5031650;28;20281;-62
2022/11/18 09:03:18;;;;;;;5.18;3.00;;;9.10;99.90;;;;;;5031009;28;20464;-56
2022/11/18 09:05:46;;;;;;;16.77;2.70;;;9.10;99.90;;;;;;5032586;28;20592;-58
2022/11/18 09:08:14;;;;;;;3.77;2.03;;;9.30;99.90;;;;;;5030162;28;20226;-55
2022/11/18 09:10:41;;;;;;;2.83;1.90;;;9.40;99.90;;;;;;5031664;28;20604;-56
2022/11/18 09:13:08;;;;;;;5.47;2.30;;;9.50;99.90;;;;;;5027062;28;20294;-55
2022/11/18 09:15:58;;;;;;;2.83;1.93;;;9.90;99.90;;;;;;5031340;28;20230;-56
2022/11/18 09:18:25;;;;;;;5.90;2.30;;;10.00;99.90;;;;;;5015912;28;20311;-56
2022/11/18 09:21:00;;;;;;;5.37;2.20;;;10.20;99.90;;;;;;5031846;28;20204;-54
2022/11/18 09:23:27;;;;;;;2.87;2.03;;;10.80;99.90;;;;;;5030979;28;20254;-55
2022/11/18 09:26:06;;;;;;;4.07;2.10;;;10.30;99.90;;;;;;5034999;28;20261;-55
2022/11/18 09:28:33;;;;;;;2.87;2.00;;;10.40;99.90;;;;;;5029877;28;20851;-56
2022/11/18 09:31:08;;;;;;;2.50;1.80;;;10.40;99.90;;;;;;5048849;28;20207;-56
2022/11/18 09:33:36;;;;;;;4.33;1.73;;;10.60;99.90;;;;;;5030705;28;20338;-53
2022/11/18 09:36:10;;;;;;;4.03;2.07;;;10.60;99.90;;;;;;5016672;28;20338;-56
2022/11/18 09:38:36;;;;;;;3.03;1.97;;;10.50;99.90;;;;;;5030399;28;20652;-55
2022/11/18 09:41:06;;;;;;;4.27;2.63;;;10.40;99.90;;;;;;5032052;28;20197;-54
2022/11/18 09:43:54;;;;;;;4.28;2.40;;;10.80;99.90;;;;;;5027971;28;20447;-55
2022/11/18 09:46:32;;;;;;;4.97;2.40;;;10.60;99.90;;;;;;5026514;28;20283;-55
2022/11/18 09:49:13;;;;;;;5.10;2.47;;;11.10;99.90;;;;;;5027008;28;20200;-54
2022/11/18 09:51:46;;;;;;;6.30;2.13;;;10.90;99.90;;;;;;5033098;28;20201;-55
2022/11/18 09:54:23;;;;;;;1.90;1.60;;;10.80;99.90;;;;;;5029894;28;20242;-55
2022/11/18 09:56:52;;;;;;;2.90;1.73;;;10.80;99.90;;;;;;5033035;28;20222;-55
2022/11/18 09:59:23;;;;;;;4.57;2.30;;;11.20;99.90;;;;;;5034840;28;20232;-54
2022/11/18 10:01:53;;;;;;;5.43;2.10;;;11.30;99.90;;;;;;5031053;28;20671;-58
2022/11/18 10:04:21;;;;;;;4.77;1.73;;;11.30;99.90;;;;;;5024613;28;20203;-56
2022/11/18 10:06:49;;;;;;;4.30;2.30;;;11.30;99.90;;;;;;5025387;28;20208;-54
2022/11/18 10:09:26;;;;;;;2.93;1.87;;;11.50;99.90;;;;;;5033638;28;20204;-55
2022/11/18 10:12:27;;;;;;;6.57;2.00;;;11.20;99.90;;;;;;5032739;28;20270;-55
2022/11/18 10:15:32;;;;;;;4.20;2.10;;;10.60;99.90;;;;;;5031332;28;20227;-55
2022/11/18 10:18:27;;;;;;;2.17;1.83;;;10.50;99.90;;;;;;5042315;28;20258;-57
2022/11/18 10:21:19;;;;;;;5.03;2.33;;;10.40;99.90;;;;;;5031503;28;20227;-55
2022/11/18 10:23:52;;;;;;;6.10;2.00;;;10.20;99.90;;;;;;5030081;28;20207;-56
2022/11/18 10:26:40;;;;;;;4.70;2.50;;;10.20;99.90;;;;;;5029107;28;20207;-56
2022/11/18 10:29:08;;;;;;;5.80;2.47;;;10.30;99.90;;;;;;5028340;28;22083;-55
2022/11/18 10:31:51;;;;;;;3.03;2.17;;;10.30;99.90;;;;;;5028977;28;20343;-56
2022/11/18 10:34:19;;;;;;;3.23;2.07;;;10.60;99.90;;;;;;5037317;28;20715;-56
2022/11/18 10:37:06;;;;;;;4.93;2.43;;;10.60;99.90;;;;;;5035848;28;20270;-56
2022/11/18 10:39:47;;;;;;;5.23;2.30;;;10.50;99.90;;;;;;5034990;28;20643;-55
2022/11/18 10:42:36;;;;;;;4.40;2.23;;;10.40;99.90;;;;;;5033668;28;20199;-55
2022/11/18 10:45:21;;;;;;;8.20;2.20;;;10.40;99.90;;;;;;5029804;28;20200;-55
2022/11/18 10:48:15;;;;;;;4.23;2.33;;;10.40;99.90;;;;;;5032960;28;20294;-55
2022/11/18 10:50:50;;;;;;;3.87;2.00;;;10.40;99.90;;;;;;5037326;28;20234;-55
2022/11/18 10:53:27;;;;;;;5.57;2.17;;;10.40;99.90;;;;;;5049338;28;20651;-56
2022/11/18 10:55:59;;;;;;;4.83;1.87;;;10.40;99.90;;;;;;5035504;28;20303;-55
2022/11/18 10:58:29;;;;;;;6.20;2.17;;;10.50;99.90;;;;;;5032637;28;21127;-56
2022/11/18 11:01:07;;;;;;;6.20;2.30;;;10.40;99.90;;;;;;5033597;28;20230;-55
2022/11/18 11:03:37;;;;;;;6.37;2.63;;;10.50;99.90;;;;;;5036235;28;20603;-58
2022/11/18 11:06:26;;;;;;;5.57;2.23;;;10.60;99.90;;;;;;5021021;28;20635;-55
2022/11/18 11:08:56;;;;;;;3.60;2.50;;;10.70;99.90;;;;;;5032119;28;20243;-57
2022/11/18 11:11:30;;;;;;;4.57;2.23;;;10.50;99.90;;;;;;5035020;28;20650;-57
2022/11/18 11:14:03;;;;;;;6.63;2.33;;;10.50;99.90;;;;;;5034324;28;20638;-56
2022/11/18 11:16:35;;;;;;;6.03;2.60;;;10.50;99.90;;;;;;5032174;28;20220;-57
2022/11/18 11:19:04;;;;;;;6.37;2.30;;;10.60;99.90;;;;;;5033916;28;20290;-57
2022/11/18 11:21:31;;;;;;;7.43;2.00;;;10.40;99.90;;;;;;5032020;28;20285;-56
2022/11/18 11:23:58;;;;;;;8.03;2.70;;;10.40;99.90;;;;;;5032649;28;20219;-55
2022/11/18 11:26:38;;;;;;;4.37;2.80;;;10.30;99.90;;;;;;5032160;28;20888;-56
2022/11/18 11:29:43;;;;;;;8.83;2.50;;;10.20;99.90;;;;;;5033776;28;20218;-57
2022/11/18 11:32:22;;;;;;;3.93;2.10;;;10.20;99.90;;;;;;5034320;28;20299;-59
2022/11/18 11:35:18;;;;;;;5.87;2.47;;;10.30;99.90;;;;;;5035640;28;20247;-57
2022/11/18 11:38:03;;;;;;;7.43;2.27;;;10.50;99.90;;;;;;5034037;28;20205;-57
2022/11/18 11:41:05;;;;;;;5.87;2.53;;;10.40;99.90;;;;;;5034128;28;20214;-57
2022/11/18 11:43:35;;;;;;;5.13;2.20;;;10.50;99.90;;;;;;5029531;28;20246;-57
2022/11/18 11:46:05;;;;;;;5.60;1.97;;;10.50;99.90;;;;;;5035574;28;20196;-57
2022/11/18 11:49:08;;;;;;;5.17;2.20;;;10.40;99.90;;;;;;5036899;28;20298;-55
2022/11/18 11:51:54;;;;;;;4.90;2.40;;;10.60;99.90;;;;;;5035199;28;20199;-58
2022/11/18 11:54:43;;;;;;;2.67;2.07;;;10.60;99.90;;;;;;5020379;28;20660;-57
2022/11/18 11:57:13;;;;;;;4.10;2.37;;;10.40;99.90;;;;;;5035107;28;20223;-55
2022/11/18 11:59:59;;;;;;;5.50;2.50;;;10.40;99.90;;;;;;5034907;28;20243;-55
2022/11/18 12:02:25;;;;;;;5.37;2.47;;;10.60;99.90;;;;;;5038941;28;20282;-56
2022/11/18 12:05:15;;;;;;;4.13;2.23;;;10.60;99.90;;;;;;5036421;28;20254;-55
2022/11/18 12:08:15;;;;;;;5.33;2.40;;;10.60;99.90;;;;;;5013939;28;20294;-55
2022/11/18 12:11:10;;;;;;;9.97;2.90;;;10.50;99.90;;;;;;5031291;28;20725;-55
2022/11/18 12:13:56;;;;;;;5.10;2.60;;;10.30;99.90;;;;;;5033454;28;20200;-56
2022/11/18 12:16:42;;;;;;;8.60;3.13;;;10.30;99.90;;;;;;5037535;28;20590;-56
2022/11/18 12:19:19;;;;;;;5.57;2.73;;;10.40;99.90;;;;;;5041594;28;20668;-56
2022/11/18 12:21:46;;;;;;;4.73;2.77;;;10.40;99.90;;;;;;5028761;28;20625;-56
2022/11/18 12:24:16;;;;;;;6.53;3.00;;;10.50;99.90;;;;;;5054384;28;20652;-55
2022/11/18 12:26:45;;;;;;;5.33;2.50;;;10.70;99.90;;;;;;5039596;28;20236;-56
2022/11/18 12:29:34;;;;;;;5.43;2.60;;;10.90;99.90;;;;;;5037535;28;20207;-55
2022/11/18 12:32:02;;;;;;;9.00;3.00;;;11.50;99.90;;;;;;5038364;28;20243;-55
2022/11/18 12:34:40;;;;;;;7.50;2.80;;;12.00;99.90;;;;;;5037782;28;20203;-55
2022/11/18 12:37:22;;;;;;;7.80;2.57;;;12.80;99.90;;;;;;5039273;28;20243;-56
2022/11/18 12:39:55;;;;;;;5.80;3.10;;;12.70;99.90;;;;;;5039363;28;20672;-56
2022/11/18 12:45:42;;;;;;;6.73;2.57;;;12.20;99.90;;;;;;5037876;28;20605;-56
2022/11/18 12:48:36;;;;;;;7.37;3.40;;;11.90;99.90;;;;;;5037738;28;20203;-56
2022/11/18 12:51:14;;;;;;;10.17;3.40;;;11.70;99.90;;;;;;5037862;28;20193;-56
2022/11/18 12:53:46;;;;;;;7.07;2.77;;;11.40;99.90;;;;;;5039483;28;20284;-56
2022/11/18 12:56:16;;;;;;;10.13;3.77;;;11.40;99.90;;;;;;5035591;28;20316;-57
2022/11/18 12:58:48;;;;;;;8.13;3.10;;;11.40;99.90;;;;;;5040951;28;20332;-56
2022/11/18 13:01:20;;;;;;;7.90;2.80;;;11.40;99.90;;;;;;5037651;28;20239;-57
2022/11/18 13:03:47;;;;;;;7.67;3.40;;;11.30;99.90;;;;;;5020960;28;20310;-56
2022/11/18 13:06:29;;;;;;;4.93;3.00;;;11.30;99.90;;;;;;5017448;28;20301;-56
2022/11/18 13:09:01;;;;;;;3.73;2.83;;;11.10;99.90;;;;;;5029778;28;20224;-55
2022/11/18 13:11:45;;;;;;;9.17;3.23;;;11.10;99.90;;;;;;5029816;28;20240;-57
2022/11/18 13:17:53;;;;;;;4.37;2.93;;;11.10;99.90;;;;;;5031669;28;20313;-63
2022/11/18 13:20:30;;;;;;;4.43;2.63;;;11.20;99.90;;;;;;5034579;28;20609;-57
2022/11/18 13:26:12;;;;;;;6.70;2.90;;;11.20;99.90;;;;;;5032347;28;20242;-57
2022/11/18 13:29:02;;;;;;;5.73;2.80;;;11.20;99.90;;;;;;5034010;28;20680;-56
2022/11/18 13:32:00;;;;;;;4.03;2.17;;;11.20;99.90;;;;;;5035215;28;20200;-56
2022/11/18 13:34:30;;;;;;;5.80;2.87;;;11.10;99.90;;;;;;5035241;28;20200;-60
2022/11/18 13:36:58;;;;;;;6.43;2.50;;;11.10;99.90;;;;;;5033514;28;20213;-56
2022/11/18 13:39:30;;;;;;;4.07;3.00;;;11.00;99.90;;;;;;5033956;28;20285;-57
2022/11/18 13:42:05;;;;;;;6.20;2.87;;;10.90;99.90;;;;;;5032432;28;20206;-56